createdAt,value
2019-03-26T00:02:19.206Z,3.47
2019-03-26T00:05:00.420Z,3.80
2019-03-26T00:07:41.985Z,3.77
2019-03-26T00:10:23.045Z,2.97
2019-03-26T00:13:03.980Z,2.47
2019-03-26T00:15:44.674Z,2.73
2019-03-26T00:18:25.754Z,2.47
2019-03-26T00:21:06.802Z,3.40
2019-03-26T00:23:47.967Z,3.10
2019-03-26T00:26:29.254Z,2.97
2019-03-26T00:28:59.531Z,3.40
2019-03-26T00:31:48.219Z,3.40
2019-03-26T00:34:36.870Z,3.10
2019-03-26T00:37:17.693Z,3.10
2019-03-26T00:39:58.305Z,3.30
2019-03-26T00:42:39.030Z,3.63
2019-03-26T00:45:20.273Z,2.60
2019-03-26T00:48:01.912Z,3.10
2019-03-26T00:50:43.142Z,3.10
2019-03-26T00:53:23.979Z,2.87
2019-03-26T00:55:53.873Z,3.13
2019-03-26T00:58:42.529Z,2.87
2019-03-26T01:01:31.723Z,3.17
2019-03-26T01:04:32.253Z,3.73
2019-03-26T01:07:10.843Z,3.27
2019-03-26T01:09:59.543Z,3.87
2019-03-26T01:12:48.225Z,4.00
2019-03-26T01:15:36.899Z,3.00
2019-03-26T01:18:25.578Z,3.47
2019-03-26T01:21:14.224Z,2.97
2019-03-26T01:24:03.285Z,3.10
2019-03-26T01:26:51.957Z,2.70
2019-03-26T01:29:41.025Z,3.50
2019-03-26T01:32:30.342Z,2.80
2019-03-26T01:35:19.170Z,2.30
2019-03-26T01:38:00.468Z,3.00
2019-03-26T01:40:41.222Z,2.43
2019-03-26T01:43:22.229Z,2.90
2019-03-26T01:46:03.554Z,2.90
2019-03-26T01:48:45.069Z,2.40
2019-03-26T01:51:26.450Z,3.03
2019-03-26T01:54:07.756Z,2.60
2019-03-26T01:56:48.942Z,3.10
2019-03-26T01:59:30.081Z,2.77
2019-03-26T02:02:11.544Z,2.73
2019-03-26T02:04:59.829Z,2.70
2019-03-26T02:07:38.829Z,2.50
2019-03-26T02:10:19.058Z,3.20
2019-03-26T02:13:00.147Z,2.43
2019-03-26T02:15:41.506Z,2.60
2019-03-26T02:18:23.029Z,1.90
2019-03-26T02:21:04.243Z,2.10
2019-03-26T02:23:45.070Z,2.93
2019-03-26T02:26:26.543Z,2.37
2019-03-26T02:29:07.574Z,3.07
2019-03-26T02:31:52.070Z,2.80
2019-03-26T02:34:33.498Z,2.73
2019-03-26T02:37:15.190Z,2.13
2019-03-26T02:39:56.836Z,2.90
2019-03-26T02:42:37.926Z,3.13
2019-03-26T02:45:19.024Z,2.47
2019-03-26T02:48:00.531Z,2.73
2019-03-26T02:50:42.068Z,2.60
2019-03-26T02:53:23.356Z,2.20
2019-03-26T02:56:04.766Z,2.20
2019-03-26T02:58:45.450Z,3.10
2019-03-26T03:01:26.963Z,2.57
2019-03-26T03:04:08.360Z,2.40
2019-03-26T03:06:49.248Z,2.47
2019-03-26T03:09:30.416Z,3.00
2019-03-26T03:12:11.777Z,2.27
2019-03-26T03:14:53.117Z,3.37
2019-03-26T03:17:33.805Z,3.07
2019-03-26T03:20:15.239Z,3.10
2019-03-26T03:22:56.107Z,2.50
2019-03-26T03:25:37.381Z,2.10
2019-03-26T03:28:18.276Z,2.57
2019-03-26T03:30:59.627Z,2.77
2019-03-26T03:33:40.842Z,2.60
2019-03-26T03:36:21.668Z,3.40
2019-03-26T03:39:02.663Z,3.97
2019-03-26T03:41:43.738Z,3.07
2019-03-26T03:44:24.429Z,3.00
2019-03-26T03:47:05.530Z,3.23
2019-03-26T03:49:46.205Z,2.50
2019-03-26T03:52:27.282Z,2.77
2019-03-26T03:55:08.775Z,5.03
2019-03-26T03:58:19.094Z,3.33
2019-03-26T04:01:07.951Z,3.33
2019-03-26T04:03:56.699Z,4.40
2019-03-26T04:06:45.390Z,4.50
2019-03-26T04:09:34.255Z,3.13
2019-03-26T04:12:22.923Z,3.00
2019-03-26T04:15:11.667Z,3.57
2019-03-26T04:18:00.440Z,3.30
2019-03-26T04:20:49.183Z,3.17
2019-03-26T04:23:37.959Z,2.93
2019-03-26T04:26:26.619Z,3.20
2019-03-26T04:29:15.457Z,5.27
2019-03-26T04:32:04.209Z,5.20
2019-03-26T04:34:52.968Z,2.70
2019-03-26T04:37:32.922Z,4.20
2019-03-26T04:40:21.818Z,2.17
2019-03-26T04:43:10.810Z,2.60
2019-03-26T04:45:59.642Z,3.00
2019-03-26T04:48:48.350Z,4.53
2019-03-26T04:51:37.014Z,2.30
2019-03-26T04:54:25.831Z,3.70
2019-03-26T04:57:14.713Z,2.97
2019-03-26T05:00:03.483Z,2.70
2019-03-26T05:03:11.219Z,2.30
2019-03-26T05:05:59.924Z,3.00
2019-03-26T05:08:49.061Z,3.33
2019-03-26T05:11:37.716Z,2.80
2019-03-26T05:14:26.750Z,3.37
2019-03-26T05:17:15.562Z,5.50
2019-03-26T05:20:04.480Z,3.20
2019-03-26T05:22:53.135Z,2.80
2019-03-26T05:25:41.880Z,2.80
2019-03-26T05:28:30.946Z,3.57
2019-03-26T05:31:19.610Z,2.83
2019-03-26T05:34:08.303Z,4.80
2019-03-26T05:36:51.670Z,2.90
2019-03-26T05:39:31.930Z,2.93
2019-03-26T05:42:13.290Z,2.80
2019-03-26T05:44:54.329Z,3.93
2019-03-26T05:47:35.030Z,4.10
2019-03-26T05:50:16.517Z,3.17
2019-03-26T05:52:57.992Z,4.10
2019-03-26T05:55:39.000Z,3.30
2019-03-26T05:58:20.034Z,5.73
2019-03-26T06:01:00.664Z,3.47
2019-03-26T06:03:41.968Z,3.03
2019-03-26T06:06:23.005Z,4.90
2019-03-26T06:09:05.127Z,5.30
2019-03-26T06:11:46.150Z,4.60
2019-03-26T06:14:27.304Z,4.63
2019-03-26T06:17:07.938Z,5.53
2019-03-26T06:19:49.388Z,5.83
2019-03-26T06:22:30.196Z,5.70
2019-03-26T06:25:11.640Z,4.53
2019-03-26T06:27:53.222Z,4.97
2019-03-26T06:30:33.924Z,4.27
2019-03-26T06:33:16.106Z,4.57
2019-03-26T06:35:46.048Z,4.27
2019-03-26T06:41:42.749Z,3.70
2019-03-26T06:44:31.451Z,4.20
2019-03-26T06:47:20.230Z,5.17
2019-03-26T06:50:09.099Z,4.37
2019-03-26T06:52:57.757Z,5.03
2019-03-26T06:55:46.578Z,4.27
2019-03-26T06:58:35.250Z,3.50
2019-03-26T22:39:39.530Z,11.57
2019-03-26T22:42:28.281Z,10.90
2019-03-26T22:45:16.980Z,11.30
2019-03-26T22:48:05.998Z,13.00
2019-03-26T22:50:54.669Z,12.23
2019-03-26T22:53:43.459Z,11.20
2019-03-26T22:56:32.410Z,12.70
2019-03-26T22:59:21.123Z,11.47
2019-03-26T23:02:09.873Z,9.90
2019-03-26T23:04:58.607Z,10.23
2019-03-26T23:07:47.359Z,11.10
2019-03-26T23:10:36.061Z,10.13
2019-03-26T23:13:24.848Z,10.27
2019-03-26T23:16:16.042Z,9.97
2019-03-26T23:18:57.310Z,9.60
2019-03-26T23:21:38.840Z,8.70
2019-03-26T23:24:19.460Z,9.03
2019-03-26T23:27:00.728Z,12.97
2019-03-26T23:29:42.162Z,12.17
2019-03-26T23:32:12.076Z,7.70
2019-03-26T23:35:00.931Z,9.93
2019-03-26T23:37:49.623Z,8.87
2019-03-26T23:40:38.334Z,9.53
2019-03-26T23:43:27.023Z,8.53
2019-03-26T23:46:15.723Z,11.53
2019-03-26T23:49:17.351Z,10.53
2019-03-26T23:52:00.689Z,9.80
2019-03-26T23:58:15.481Z,11.97
